Time;durP1;ratioP1;P1;durP2;ratioP2;P2;SDS_P1;SDS_P2;PMS_P1;PMS_P2;Temp;Humidity;BMP_temperature;BMP_pressure;BME280_temperature;BME280_humidity;BME280_pressure;Samples;Min_cycle;Max_cycle;Signal;HPM_P1;HPM_P2
2022/05/18 06:04:21;;;;;;;7.10;3.45;;;;;;;19.87;83.49;99605.06;5109395;27;20166;-78
2022/05/18 06:06:48;;;;;;;6.55;3.30;;;;;;;20.22;80.74;99604.31;5108892;28;20437;-79
2022/05/18 06:09:14;;;;;;;7.13;3.80;;;;;;;20.24;78.96;99600.25;5106789;28;20047;-79
2022/05/18 06:11:41;;;;;;;5.50;2.92;;;;;;;20.41;76.63;99610.59;5104611;28;20056;-79
2022/05/18 06:14:07;;;;;;;4.97;2.90;;;;;;;20.61;77.54;99602.81;5106943;28;20048;-79
2022/05/18 06:16:34;;;;;;;5.50;3.45;;;;;;;20.79;77.26;99604.63;5108421;28;20044;-79
2022/05/18 06:19:01;;;;;;;5.72;3.28;;;;;;;21.09;74.71;99608.31;5108335;28;20501;-79
2022/05/18 06:21:29;;;;;;;5.72;3.08;;;;;;;20.83;76.42;99607.75;5108144;28;20056;-79
2022/05/18 06:23:56;;;;;;;9.07;3.22;;;;;;;20.88;75.62;99602.34;5107602;28;20516;-79
2022/05/18 06:26:22;;;;;;;5.50;2.95;;;;;;;21.51;75.65;99616.41;5105534;28;20101;-79
2022/05/18 06:28:49;;;;;;;7.88;3.58;;;;;;;21.40;72.44;99613.38;5104774;28;20052;-79
2022/05/18 06:31:16;;;;;;;5.63;2.67;;;;;;;21.90;71.60;99619.34;5107986;28;20044;-79
2022/05/18 06:33:42;;;;;;;6.63;2.70;;;;;;;21.99;70.79;99617.03;5107548;28;20144;-79
2022/05/18 06:36:09;;;;;;;6.30;2.15;;;;;;;22.33;65.24;99620.69;5107915;28;20060;-79
2022/05/18 06:38:37;;;;;;;5.97;2.42;;;;;;;22.69;62.57;99621.28;5106683;28;20056;-79
2022/05/18 06:43:47;;;;;;;4.78;2.60;;;;;;;22.86;60.57;99626.78;5102514;28;20521;-79
2022/05/18 06:46:14;;;;;;;4.10;2.33;;;;;;;22.60;58.15;99625.56;5097810;28;20055;-79
2022/05/18 06:48:41;;;;;;;4.15;2.15;;;;;;;22.76;59.17;99637.72;5107964;28;20051;-79
2022/05/18 06:51:08;;;;;;;3.22;2.20;;;;;;;23.07;58.63;99627.09;5107628;28;20047;-79
2022/05/18 06:53:36;;;;;;;7.88;2.20;;;;;;;23.13;56.73;99629.69;5107327;28;20055;-79
2022/05/18 06:56:03;;;;;;;8.70;2.92;;;;;;;23.23;56.24;99625.38;5107993;28;20399;-79
2022/05/18 06:58:30;;;;;;;7.93;2.38;;;;;;;23.16;55.82;99622.81;5107697;28;20052;-79
2022/05/18 07:00:56;;;;;;;7.55;3.50;;;;;;;23.22;57.70;99632.88;5107701;28;20054;-79
2022/05/18 07:03:23;;;;;;;7.57;2.75;;;;;;;23.37;59.53;99625.84;5116215;28;20058;-79
2022/05/18 07:05:49;;;;;;;6.53;2.72;;;;;;;23.33;56.86;99620.81;5127666;27;20047;-79
2022/05/18 07:08:17;;;;;;;10.45;2.50;;;;;;;23.68;57.44;99621.47;5127727;28;20134;-79
2022/05/18 07:10:45;;;;;;;9.90;3.05;;;;;;;23.63;57.00;99636.13;5126190;28;20052;-79
2022/05/18 07:13:16;;;;;;;6.07;2.50;;;;;;;23.56;55.65;99613.31;5126716;27;20041;-79
2022/05/18 07:15:43;;;;;;;9.45;2.83;;;;;;;24.18;54.75;99633.44;5114365;28;20070;-79
2022/05/18 07:18:09;;;;;;;16.40;2.72;;;;;;;23.96;54.40;99625.97;5114116;28;20052;-79
2022/05/18 07:20:36;;;;;;;6.43;2.58;;;;;;;24.57;54.62;99633.19;5110046;28;20047;-79
2022/05/18 07:23:02;;;;;;;7.63;2.53;;;;;;;24.53;53.57;99607.03;5111512;28;20079;-79
2022/05/18 07:25:29;;;;;;;3.42;2.58;;;;;;;24.58;53.54;99621.00;5113585;28;20052;-79
2022/05/18 07:27:57;;;;;;;4.18;1.85;;;;;;;24.72;51.96;99591.63;5113961;28;20073;-79
2022/05/18 07:30:24;;;;;;;8.68;2.28;;;;;;;24.72;52.59;99613.88;5113532;28;20060;-79
2022/05/18 07:32:50;;;;;;;9.32;2.80;;;;;;;24.98;54.20;99624.34;5113133;28;20495;-79
2022/05/18 07:35:17;;;;;;;6.97;2.03;;;;;;;25.04;54.90;99609.34;5113605;28;20406;-80
2022/05/18 07:37:43;;;;;;;6.18;2.53;;;;;;;24.93;51.10;99616.81;5113850;28;20067;-79
2022/05/18 07:40:10;;;;;;;10.85;2.40;;;;;;;24.41;52.23;99598.06;5112129;28;20043;-79
2022/05/18 07:42:38;;;;;;;13.40;2.28;;;;;;;24.47;54.67;99617.28;5113014;27;20052;-79
2022/05/18 07:45:07;;;;;;;6.80;2.17;;;;;;;24.35;52.77;99600.78;5113384;28;20043;-79
2022/05/18 07:47:34;;;;;;;10.90;2.17;;;;;;;24.65;53.05;99612.44;5113483;28;20394;-79
2022/05/18 07:50:00;;;;;;;4.00;2.10;;;;;;;24.74;54.60;99606.09;5113310;28;20051;-79
2022/05/18 07:52:27;;;;;;;9.60;2.45;;;;;;;24.64;52.64;99600.47;5112621;28;20052;-79
2022/05/18 07:54:53;;;;;;;6.95;2.38;;;;;;;24.69;53.26;99600.50;5113231;28;20046;-79
2022/05/18 07:57:20;;;;;;;9.18;2.50;;;;;;;24.64;53.84;99599.63;5104503;28;20059;-79
2022/05/18 07:59:47;;;;;;;4.97;2.20;;;;;;;25.01;53.94;99607.09;5113076;28;20047;-79
2022/05/18 08:02:14;;;;;;;2.60;2.13;;;;;;;24.68;51.56;99607.16;5111928;28;20043;-79
2022/05/18 08:04:41;;;;;;;4.22;2.15;;;;;;;24.40;51.25;99591.66;5112816;28;20040;-79
2022/05/18 08:07:07;;;;;;;5.55;2.20;;;;;;;24.40;52.44;99619.44;5113012;28;20043;-80
2022/05/18 08:15:05;;;;;;;4.88;2.58;;;;;;;23.99;52.82;99583.81;5111119;28;20475;-79
2022/05/18 08:15:09;;;;;;;10.10;2.05;;;;;;;24.69;52.51;99617.19;5112753;28;20054;-78
2022/05/18 08:17:36;;;;;;;11.23;2.10;;;;;;;24.56;54.40;99587.03;5113150;28;20052;-79
2022/05/18 08:20:08;;;;;;;4.40;2.22;;;;;;;24.80;51.56;99606.16;5108622;28;20056;-79
2022/05/18 08:22:35;;;;;;;4.93;2.22;;;;;;;25.03;53.82;99610.44;5098293;28;20048;-78
2022/05/18 08:25:02;;;;;;;5.55;1.95;;;;;;;25.20;51.97;99616.66;5104702;28;20558;-79
2022/05/18 08:27:29;;;;;;;9.82;2.17;;;;;;;25.19;51.99;99608.59;5110584;28;20075;-79
2022/05/18 08:30:01;;;;;;;2.40;1.80;;;;;;;25.30;52.98;99613.09;5112575;28;20044;-79
2022/05/18 08:32:27;;;;;;;6.57;1.88;;;;;;;25.28;51.51;99593.03;5111947;28;20077;-79
2022/05/18 08:34:55;;;;;;;5.22;2.05;;;;;;;25.22;51.96;99600.53;5112768;28;20055;-79
2022/05/18 08:37:23;;;;;;;3.25;2.10;;;;;;;25.38;49.39;99606.19;5107871;28;20059;-79
2022/05/18 08:39:51;;;;;;;2.40;1.90;;;;;;;25.69;52.24;99611.88;5112069;27;20051;-79
2022/05/18 08:42:20;;;;;;;3.63;1.67;;;;;;;25.46;47.91;99608.44;5111425;28;20051;-79
2022/05/18 08:44:48;;;;;;;3.55;2.13;;;;;;;25.56;47.69;99602.94;5109792;28;20044;-79
2022/05/18 08:47:27;;;;;;;2.47;1.60;;;;;;;25.55;47.78;99603.19;5112276;28;20093;-79
2022/05/18 08:49:59;;;;;;;8.73;2.30;;;;;;;25.66;47.82;99620.75;5112097;28;20400;-79
2022/05/18 08:52:44;;;;;;;4.55;2.10;;;;;;;25.65;49.10;99613.50;5111342;28;20056;-79
2022/05/18 08:55:43;;;;;;;5.50;1.73;;;;;;;25.66;46.42;99627.16;5112062;28;20091;-79
2022/05/18 08:58:15;;;;;;;6.70;2.60;;;;;;;25.74;49.22;99615.50;5099318;28;20047;-79
2022/05/18 09:00:45;;;;;;;6.25;2.20;;;;;;;25.94;44.39;99616.63;5111921;28;20043;-79
2022/05/18 09:03:17;;;;;;;4.60;2.00;;;;;;;26.01;45.06;99616.41;5110506;28;20142;-79
2022/05/18 09:05:52;;;;;;;2.47;1.80;;;;;;;26.04;45.43;99615.84;5112044;28;20121;-79
2022/05/18 09:08:22;;;;;;;7.40;2.42;;;;;;;25.90;47.65;99615.53;5111819;28;20066;-80
2022/05/18 09:10:58;;;;;;;3.63;1.70;;;;;;;25.99;46.93;99613.06;5101011;28;20043;-79
2022/05/18 09:13:25;;;;;;;3.22;1.55;;;;;;;25.99;46.40;99613.06;5110761;28;20075;-79
2022/05/18 09:15:59;;;;;;;3.83;1.90;;;;;;;25.97;46.30;99602.19;5112045;28;20043;-79
2022/05/18 09:18:35;;;;;;;4.20;2.38;;;;;;;26.13;44.01;99623.38;5111484;28;20058;-79
2022/05/18 09:21:21;;;;;;;4.00;1.77;;;;;;;26.06;45.58;99622.84;5111728;27;20044;-79
2022/05/18 09:24:08;;;;;;;5.57;2.22;;;;;;;26.14;46.51;99602.78;5110742;28;20046;-79
2022/05/18 09:26:52;;;;;;;3.58;2.13;;;;;;;26.53;44.61;99618.09;5106513;28;20404;-79
2022/05/18 09:29:27;;;;;;;5.03;2.15;;;;;;;26.48;44.58;99602.22;5111282;28;20398;-79
2022/05/18 09:32:13;;;;;;;11.23;2.17;;;;;;;26.35;42.66;99611.16;5111572;28;20055;-79
2022/05/18 09:35:13;;;;;;;4.90;2.15;;;;;;;26.30;42.78;99605.56;5111513;28;20082;-79
2022/05/18 09:37:46;;;;;;;3.42;2.05;;;;;;;26.26;42.07;99610.03;5109839;28;20047;-79
2022/05/18 09:40:17;;;;;;;3.78;1.80;;;;;;;26.46;41.64;99610.00;5111304;28;20092;-79
2022/05/18 09:42:50;;;;;;;3.50;1.88;;;;;;;26.32;42.50;99589.41;5110599;28;20087;-79
2022/05/18 09:45:19;;;;;;;8.55;1.60;;;;;;;26.70;40.07;99597.50;5106824;28;20054;-79
2022/05/18 09:47:50;;;;;;;6.28;1.85;;;;;;;27.01;42.04;99610.25;5109446;28;20052;-79
2022/05/18 09:50:17;;;;;;;4.93;2.35;;;;;;;26.80;42.23;99600.25;5091019;28;20044;-79
2022/05/18 09:52:47;;;;;;;4.75;1.80;;;;;;;26.86;42.44;99596.34;5090149;28;20055;-79
2022/05/18 09:55:18;;;;;;;3.60;2.00;;;;;;;26.89;41.20;99590.19;5091077;28;20052;-79
2022/05/18 09:57:52;;;;;;;3.97;2.25;;;;;;;26.82;44.68;99570.13;5090822;28;20509;-79
2022/05/18 10:00:22;;;;;;;5.60;1.50;;;;;;;26.90;40.07;99596.59;5090976;28;20068;-79
2022/05/18 10:08:36;;;;;;;3.15;1.70;;;;;;;26.64;38.72;99588.25;5110513;28;20077;-79
2022/05/18 10:11:06;;;;;;;2.45;1.23;;;;;;;27.00;37.14;99582.63;5111196;28;20048;-78
2022/05/18 10:13:34;;;;;;;;;;;;;;;27.06;36.38;99587.06;5110891;28;20486;-79
2022/05/18 10:16:04;;;;;;;2.47;1.13;;;;;;;26.86;36.06;99576.81;5111054;28;19923;-79
2022/05/18 10:18:36;;;;;;;3.38;1.48;;;;;;;26.90;37.73;99575.13;5108613;28;20079;-79
2022/05/18 10:21:12;;;;;;;4.75;1.40;;;;;;;26.98;38.87;99574.56;5109268;28;20051;-79
2022/05/18 10:23:45;;;;;;;11.85;1.33;;;;;;;27.24;38.79;99570.84;5110506;28;20047;-79
2022/05/18 10:26:23;;;;;;;1.70;1.25;;;;;;;27.63;38.80;99578.47;5110618;28;20100;-79
2022/05/18 10:28:56;;;;;;;3.28;1.48;;;;;;;27.75;36.17;99570.59;5111002;28;20383;-79
2022/05/18 10:31:28;;;;;;;3.90;1.80;;;;;;;27.83;38.36;99556.00;5110899;28;20047;-79
2022/05/18 10:34:11;;;;;;;2.33;1.50;;;;;;;27.98;36.20;99579.41;5108915;28;20413;-79
2022/05/18 10:36:43;;;;;;;3.13;1.50;;;;;;;28.00;34.59;99569.59;5106032;28;20498;-79
2022/05/18 10:39:11;;;;;;;1.65;1.30;;;;;;;27.80;35.76;99548.19;5110526;28;20436;-79
2022/05/18 10:41:42;;;;;;;2.08;1.25;;;;;;;27.77;34.80;99570.28;5110847;28;20070;-79
2022/05/18 10:44:16;;;;;;;4.38;1.20;;;;;;;27.90;35.66;99569.66;5109848;28;20511;-79
2022/05/18 10:46:44;;;;;;;3.67;1.40;;;;;;;27.93;36.48;99543.06;5110717;28;20065;-79
2022/05/18 10:49:22;;;;;;;2.67;1.48;;;;;;;27.66;34.39;99550.81;5111007;28;20509;-79
2022/05/18 10:51:49;;;;;;;3.50;2.08;;;;;;;28.12;35.19;99546.03;5112640;28;20522;-79
2022/05/18 10:54:22;;;;;;;4.88;1.50;;;;;;;28.28;36.07;99555.94;5113598;28;20057;-79
2022/05/18 10:56:50;;;;;;;1.60;1.20;;;;;;;28.28;36.07;99535.56;5114484;28;20071;-79
2022/05/18 10:59:48;;;;;;;5.90;1.30;;;;;;;28.69;38.12;99560.34;5108672;28;20055;-79
2022/05/18 11:02:28;;;;;;;1.60;1.17;;;;;;;28.53;36.15;99534.47;5113754;28;20138;-79
2022/05/18 11:05:01;;;;;;;3.40;1.50;;;;;;;28.73;35.12;99548.25;5114418;28;20483;-79
2022/05/18 11:07:29;;;;;;;1.67;1.45;;;;;;;28.57;34.51;99550.34;5114324;28;20054;-79
2022/05/18 11:09:58;;;;;;;5.55;1.60;;;;;;;28.69;34.08;99532.38;5114305;28;20062;-79
2022/05/18 11:12:39;;;;;;;4.03;1.67;;;;;;;28.65;35.28;99534.09;5113293;28;20044;-79
2022/05/18 11:15:09;;;;;;;2.38;1.30;;;;;;;28.62;34.97;99540.28;5114143;28;20399;-79
2022/05/18 11:17:46;;;;;;;5.07;1.30;;;;;;;28.59;32.60;99513.72;5108701;28;20052;-79
2022/05/18 11:20:25;;;;;;;2.05;1.45;;;;;;;28.89;34.58;99509.75;5114019;28;20426;-79
2022/05/18 11:23:01;;;;;;;6.93;1.23;;;;;;;28.74;34.30;99527.56;5113469;27;20052;-79
2022/05/18 11:25:42;;;;;;;3.13;1.20;;;;;;;28.67;34.67;99534.66;5113881;28;20048;-79
2022/05/18 11:28:21;;;;;;;2.90;1.35;;;;;;;29.18;34.62;99521.97;5114145;28;20051;-79
2022/05/18 11:31:03;;;;;;;3.25;1.58;;;;;;;29.30;34.43;99498.06;5112903;28;20051;-79
2022/05/18 11:33:35;;;;;;;2.97;1.30;;;;;;;29.47;33.37;99528.31;5112872;28;20393;-79
2022/05/18 11:36:14;;;;;;;2.35;1.20;;;;;;;29.54;32.78;99519.56;5114209;28;20054;-79
2022/05/18 11:38:56;;;;;;;1.63;1.25;;;;;;;29.66;33.44;99519.94;5112987;28;20052;-79
2022/05/18 11:41:45;;;;;;;1.55;1.00;;;;;;;29.19;32.65;99507.72;5097719;28;20047;-79
2022/05/18 11:44:22;;;;;;;3.07;1.40;;;;;;;29.48;31.51;99493.59;5109125;28;20048;-79
2022/05/18 11:47:14;;;;;;;2.40;1.40;;;;;;;29.85;33.56;99521.09;5113503;28;20086;-79
2022/05/18 11:49:46;;;;;;;3.67;1.40;;;;;;;29.74;33.67;99523.19;5113490;28;20051;-79
2022/05/18 11:52:30;;;;;;;5.18;1.63;;;;;;;29.36;32.31;99486.78;5111100;28;20055;-79
2022/05/18 11:55:18;;;;;;;3.28;1.65;;;;;;;29.58;31.76;99481.38;5113059;28;20096;-79
2022/05/18 11:57:52;;;;;;;2.67;1.30;;;;;;;29.93;30.58;99489.56;5113342;28;20046;-79
2022/05/18 12:00:39;;;;;;;2.25;1.10;;;;;;;29.44;31.27;99478.53;5113149;28;20493;-79
2022/05/18 12:03:23;;;;;;;3.13;1.45;;;;;;;29.79;31.15;99492.28;5112335;28;20449;-79
2022/05/18 12:06:02;;;;;;;4.90;1.50;;;;;;;29.52;31.65;99487.38;5113306;28;20048;-79
2022/05/18 12:08:44;;;;;;;2.60;1.27;;;;;;;29.64;32.08;99484.94;5105962;28;20059;-79
2022/05/18 12:11:21;;;;;;;5.65;1.27;;;;;;;29.62;31.22;99460.03;5111085;28;20054;-79
2022/05/18 12:14:01;;;;;;;2.35;1.20;;;;;;;29.47;32.19;99477.91;5112200;28;20491;-79
2022/05/18 12:16:33;;;;;;;;;;;;;;;29.58;32.22;99488.97;5113179;28;20063;-79
2022/05/18 12:19:08;;;;;;;3.80;1.60;;;;;;;29.66;30.90;99458.31;5112960;28;20370;-78
2022/05/18 12:21:40;;;;;;;2.72;1.33;;;;;;;29.94;30.09;99466.81;5113068;28;20051;-79
2022/05/18 12:24:08;;;;;;;2.55;1.92;;;;;;;29.59;31.88;99483.06;5110918;28;21468;-79
2022/05/18 12:26:41;;;;;;;2.65;1.38;;;;;;;29.14;32.34;99458.19;5112527;28;20053;-79
2022/05/18 12:29:11;;;;;;;1.90;1.23;;;;;;;29.36;31.42;99459.63;5112673;28;20043;-79
2022/05/18 12:31:39;;;;;;;4.32;1.17;;;;;;;29.21;31.52;99471.06;5112766;28;20058;-79
2022/05/18 12:34:18;;;;;;;3.67;1.42;;;;;;;29.85;30.68;99479.06;5112129;28;20051;-79
2022/05/18 12:36:46;;;;;;;;;;;;;;;29.80;31.76;99477.16;5113568;28;20047;-79
2022/05/18 12:39:15;;;;;;;2.78;1.30;;;;;;;30.05;31.20;99473.13;5112636;28;19919;-78
2022/05/18 12:41:45;;;;;;;2.22;1.05;;;;;;;29.64;31.08;99470.94;5105700;28;20044;-79
2022/05/18 12:44:24;;;;;;;1.65;1.00;;;;;;;30.14;32.46;99476.00;5111423;28;20509;-79
2022/05/18 12:46:55;;;;;;;4.50;1.43;;;;;;;30.41;31.94;99441.63;5112568;28;20157;-79
2022/05/18 12:49:31;;;;;;;8.80;1.58;;;;;;;30.67;32.02;99464.38;5112046;28;20513;-79
2022/05/18 12:52:02;;;;;;;2.70;1.55;;;;;;;30.41;31.24;99466.03;5111926;28;20518;-79
2022/05/18 12:54:41;;;;;;;1.83;1.30;;;;;;;30.43;29.99;99458.97;5112108;28;20040;-79
2022/05/18 12:57:15;;;;;;;2.55;1.30;;;;;;;30.15;30.17;99439.25;5106965;28;20047;-78
2022/05/18 12:59:58;;;;;;;2.85;1.30;;;;;;;30.24;29.46;99461.81;5112047;28;20174;-79
2022/05/18 13:02:38;;;;;;;3.33;1.48;;;;;;;30.38;30.31;99449.78;5111603;28;20051;-79
2022/05/18 13:05:09;;;;;;;2.50;1.20;;;;;;;30.57;31.88;99444.13;5111858;28;20040;-79
2022/05/18 13:07:37;;;;;;;2.72;1.20;;;;;;;30.16;30.75;99435.34;5112492;28;20059;-79
2022/05/18 13:10:11;;;;;;;5.75;1.35;;;;;;;30.31;30.62;99433.38;5110391;28;20082;-79
2022/05/18 13:12:46;;;;;;;1.48;1.30;;;;;;;30.62;29.83;99449.63;5106354;28;20036;-79
2022/05/18 13:15:53;;;;;;;3.53;1.50;;;;;;;30.91;29.97;99452.13;5102885;28;20043;-79
2022/05/18 13:18:21;;;;;;;10.38;1.75;;;;;;;30.83;31.09;99421.97;5112016;28;20461;-79
2022/05/18 13:20:52;;;;;;;3.45;1.40;;;;;;;31.07;31.91;99441.41;5112325;28;20395;-79
2022/05/18 13:23:42;;;;;;;4.95;1.48;;;;;;;30.78;31.79;99448.16;5111026;28;20054;-79
2022/05/18 13:26:22;;;;;;;5.53;1.50;;;;;;;30.54;30.67;99439.97;5106424;28;20059;-79
2022/05/18 13:28:50;;;;;;;2.85;1.63;;;;;;;30.28;29.53;99415.22;5110447;28;20557;-78
2022/05/18 13:31:19;;;;;;;4.75;1.75;;;;;;;30.30;28.97;99412.09;5103502;28;20045;-79
2022/05/18 13:33:51;;;;;;;5.93;1.33;;;;;;;30.80;28.91;99436.63;5110694;28;20051;-79
2022/05/18 13:36:36;;;;;;;2.58;1.45;;;;;;;31.11;29.07;99427.56;5108096;28;20058;-79
2022/05/18 13:39:05;;;;;;;3.22;1.73;;;;;;;31.10;29.10;99411.88;5109813;28;20047;-79
2022/05/18 13:41:33;;;;;;;4.30;1.65;;;;;;;31.16;30.16;99433.06;5110767;28;20047;-79
2022/05/18 13:44:02;;;;;;;6.25;1.60;;;;;;;30.83;29.05;99408.78;5110636;28;20130;-79
2022/05/18 13:46:32;;;;;;;2.60;1.30;;;;;;;30.82;31.08;99397.88;5111300;28;20043;-79
2022/05/18 13:49:08;;;;;;;4.78;1.70;;;;;;;31.03;30.74;99429.16;5111653;28;20036;-79
2022/05/18 13:51:37;;;;;;;2.03;1.15;;;;;;;30.82;27.92;99395.88;5111362;28;20120;-79
2022/05/18 13:54:09;;;;;;;7.15;1.35;;;;;;;31.29;28.95;99390.06;5110639;28;20043;-79
2022/05/18 13:56:38;;;;;;;1.52;1.17;;;;;;;31.23;29.85;99388.53;5109531;28;20483;-78
2022/05/18 13:59:09;;;;;;;4.20;1.35;;;;;;;31.12;30.13;99401.16;5111119;28;20054;-79
2022/05/18 14:01:44;;;;;;;8.57;1.67;;;;;;;30.93;29.80;99396.50;5111179;28;20395;-79
2022/05/18 14:04:15;;;;;;;3.78;1.55;;;;;;;31.39;29.27;99408.63;5110264;28;20051;-78
2022/05/18 14:06:45;;;;;;;4.07;1.58;;;;;;;31.51;29.83;99391.22;5109719;28;20048;-79
2022/05/18 14:09:12;;;;;;;2.33;1.10;;;;;;;31.28;29.28;99396.81;5102218;28;20049;-79
2022/05/18 14:11:39;;;;;;;2.85;1.42;;;;;;;31.27;30.09;99377.50;5110893;28;20058;-79
2022/05/18 14:14:06;;;;;;;5.45;1.67;;;;;;;31.37;28.70;99392.09;5110348;28;20392;-79
2022/05/18 14:16:35;;;;;;;5.47;1.40;;;;;;;31.24;29.65;99370.56;5110689;28;20058;-79
2022/05/18 14:19:07;;;;;;;4.93;1.42;;;;;;;30.83;28.61;99365.84;5111058;28;20052;-80
2022/05/18 14:21:37;;;;;;;2.55;1.92;;;;;;;31.16;31.22;99396.56;5110913;28;20055;-79
2022/05/18 14:24:08;;;;;;;2.60;1.88;;;;;;;31.27;32.46;99394.34;5103303;28;20052;-79
2022/05/18 14:26:39;;;;;;;1.83;1.13;;;;;;;31.37;29.99;99391.28;5115004;28;20047;-79
2022/05/18 14:29:10;;;;;;;4.20;1.33;;;;;;;31.32;28.95;99385.81;5102117;28;20048;-79
2022/05/18 14:31:43;;;;;;;2.17;1.02;;;;;;;31.11;30.26;99377.84;5109549;28;20270;-80
2022/05/18 14:34:13;;;;;;;4.45;1.48;;;;;;;30.94;30.93;99378.50;5103983;28;20368;-79
2022/05/18 14:36:44;;;;;;;4.30;1.40;;;;;;;31.22;31.89;99373.69;5109087;28;20047;-79
2022/05/18 14:39:19;;;;;;;4.32;1.45;;;;;;;31.01;29.60;99367.72;5110221;28;20490;-79
2022/05/18 14:41:52;;;;;;;3.33;1.45;;;;;;;31.31;29.49;99376.53;5105067;28;20035;-79
2022/05/18 14:44:26;;;;;;;4.25;1.45;;;;;;;31.45;31.35;99381.25;5102196;28;20051;-79
2022/05/18 14:46:55;;;;;;;1.95;1.35;;;;;;;31.74;30.58;99369.59;5105042;28;20058;-79
2022/05/18 14:49:23;;;;;;;4.53;1.40;;;;;;;31.75;29.93;99377.72;5108829;28;20051;-79
2022/05/18 14:51:58;;;;;;;5.13;1.50;;;;;;;31.85;31.21;99376.59;5094348;28;20055;-79
2022/05/18 14:54:32;;;;;;;2.55;1.40;;;;;;;31.47;29.58;99359.31;5105291;28;20312;-79
2022/05/18 14:57:02;;;;;;;2.72;1.30;;;;;;;31.52;30.12;99353.56;5111344;28;20044;-79
2022/05/18 14:59:29;;;;;;;6.47;1.70;;;;;;;31.29;30.56;99380.81;5106096;28;20051;-79
2022/05/18 15:02:03;;;;;;;3.60;1.55;;;;;;;30.82;30.57;99358.59;5109129;28;20067;-79
2022/05/18 15:04:37;;;;;;;3.50;1.60;;;;;;;30.90;30.37;99343.78;5109149;28;20047;-79
2022/05/18 15:07:09;;;;;;;3.40;1.58;;;;;;;31.04;30.80;99347.44;5108150;28;20063;-78
2022/05/18 15:09:41;;;;;;;1.52;1.35;;;;;;;30.73;30.44;99363.25;5105840;28;20601;-79
2022/05/18 15:12:13;;;;;;;2.35;1.45;;;;;;;30.63;30.80;99356.72;5111661;28;20050;-79
2022/05/18 15:14:43;;;;;;;4.78;1.42;;;;;;;30.44;33.53;99336.41;5094704;28;20380;-79
2022/05/18 15:17:22;;;;;;;3.20;1.52;;;;;;;30.52;30.71;99361.75;5093755;28;20134;-79
2022/05/18 15:19:57;;;;;;;3.53;1.80;;;;;;;30.80;30.45;99375.72;5093895;28;20055;-79
2022/05/18 15:22:31;;;;;;;10.32;1.85;;;;;;;31.17;28.96;99334.47;5096942;28;20134;-78
2022/05/18 15:24:58;;;;;;;3.92;1.80;;;;;;;31.39;30.18;99370.16;5111361;28;20482;-79
2022/05/18 15:27:28;;;;;;;5.28;1.40;;;;;;;31.06;30.31;99359.16;5104180;28;20134;-79
2022/05/18 15:29:59;;;;;;;3.47;1.73;;;;;;;31.13;30.37;99339.06;5113827;28;20050;-78
2022/05/18 15:32:28;;;;;;;2.67;1.70;;;;;;;31.26;31.30;99354.19;5113461;28;20055;-79
2022/05/18 15:35:01;;;;;;;4.57;1.50;;;;;;;30.88;30.66;99362.94;5093078;28;20048;-79
2022/05/18 15:37:30;;;;;;;2.75;1.27;;;;;;;30.71;31.25;99349.53;5093158;28;20051;-79
2022/05/18 15:39:57;;;;;;;6.03;1.65;;;;;;;30.82;31.37;99352.97;5100232;28;20491;-79
2022/05/18 15:42:25;;;;;;;6.18;1.70;;;;;;;30.69;29.58;99335.84;5112686;28;20552;-79
2022/05/18 15:44:52;;;;;;;3.03;1.70;;;;;;;30.78;31.06;99343.53;5101623;28;20044;-80
2022/05/18 15:47:23;;;;;;;5.20;1.38;;;;;;;30.39;31.38;99342.09;5113182;28;20043;-79
2022/05/18 15:49:56;;;;;;;3.80;1.40;;;;;;;30.31;30.05;99341.69;5113587;28;20058;-79
2022/05/18 15:52:24;;;;;;;5.40;1.60;;;;;;;30.33;31.86;99339.38;5112407;28;20077;-79
2022/05/18 15:54:56;;;;;;;3.17;1.20;;;;;;;30.21;30.78;99336.28;5112895;28;20509;-78
2022/05/18 15:57:28;;;;;;;3.33;1.33;;;;;;;30.09;30.47;99328.38;5113465;28;20126;-79
2022/05/18 15:59:55;;;;;;;8.27;1.33;;;;;;;30.12;30.94;99343.75;5112413;28;20044;-79
2022/05/18 16:02:21;;;;;;;4.93;2.10;;;;;;;30.14;32.41;99330.25;5104075;28;20055;-79
2022/05/18 16:04:48;;;;;;;2.25;1.50;;;;;;;30.18;31.56;99322.88;5111408;28;20053;-79
2022/05/18 16:07:15;;;;;;;4.78;1.50;;;;;;;30.29;30.94;99334.72;5107992;28;20048;-79
2022/05/18 16:09:42;;;;;;;1.70;1.60;;;;;;;30.01;32.79;99354.34;5108273;28;20052;-79
2022/05/18 16:12:11;;;;;;;7.43;1.55;;;;;;;30.05;32.62;99346.13;5112439;28;20477;-79
2022/05/18 16:14:38;;;;;;;3.00;1.60;;;;;;;30.10;32.75;99343.25;5111684;28;20047;-79
2022/05/18 16:17:11;;;;;;;1.48;1.35;;;;;;;29.97;31.44;99353.28;5113017;28;20043;-79
2022/05/18 16:19:40;;;;;;;2.85;1.58;;;;;;;29.84;32.81;99338.13;5110690;28;20104;-79
2022/05/18 16:22:07;;;;;;;8.63;1.70;;;;;;;29.79;33.16;99358.66;5109734;28;20147;-79
2022/05/18 16:24:35;;;;;;;4.10;1.75;;;;;;;29.43;34.13;99355.63;5112351;28;20050;-79
2022/05/18 16:27:07;;;;;;;3.50;1.75;;;;;;;29.52;35.03;99364.97;5094241;28;20056;-78
2022/05/18 16:29:37;;;;;;;8.75;2.47;;;;;;;29.47;34.92;99337.91;5100537;28;20120;-79
2022/05/18 16:32:04;;;;;;;;;;;;;;;29.41;36.33;99360.72;5112409;27;20483;-79
2022/05/18 16:34:31;;;;;;;4.72;1.33;;;;;;;29.30;36.01;99338.47;5102099;28;20302;-78
2022/05/18 16:36:58;;;;;;;2.33;1.60;;;;;;;28.73;36.29;99341.28;5104638;28;20055;-78
2022/05/18 16:39:25;;;;;;;2.95;1.67;;;;;;;29.04;36.61;99357.63;5097028;28;20048;-79
2022/05/18 16:41:53;;;;;;;3.03;1.70;;;;;;;29.19;35.79;99361.31;5105226;28;20517;-79
2022/05/18 16:44:24;;;;;;;5.88;1.80;;;;;;;29.44;34.64;99338.50;5109126;28;20048;-79
2022/05/18 16:46:53;;;;;;;4.15;1.60;;;;;;;29.51;34.94;99326.94;5106416;28;20384;-79
2022/05/18 16:49:22;;;;;;;2.67;1.80;;;;;;;29.46;34.92;99330.66;5088993;28;20055;-79
2022/05/18 16:51:49;;;;;;;3.75;1.88;;;;;;;29.47;35.55;99339.88;5089421;28;20052;-78
2022/05/18 16:54:16;;;;;;;4.18;1.60;;;;;;;29.35;34.65;99353.53;5089191;28;20048;-78
2022/05/18 16:56:43;;;;;;;3.70;1.50;;;;;;;29.10;34.05;99345.22;5099137;28;20604;-78
2022/05/18 16:59:10;;;;;;;1.83;1.48;;;;;;;29.17;33.92;99353.22;5108362;28;20462;-79
2022/05/18 17:01:42;;;;;;;3.78;2.00;;;;;;;28.89;34.46;99324.25;5109971;28;20455;-78
2022/05/18 17:04:08;;;;;;;4.05;1.35;;;;;;;28.80;35.06;99318.53;5108470;28;20062;-78
2022/05/18 17:06:35;;;;;;;1.85;1.50;;;;;;;28.80;36.08;99324.13;5108257;28;20047;-78
2022/05/18 17:09:02;;;;;;;3.10;1.67;;;;;;;28.74;35.83;99347.69;5109899;28;20422;-78
2022/05/18 17:11:33;;;;;;;2.65;1.50;;;;;;;28.39;36.03;99321.84;5109501;28;20136;-79
2022/05/18 17:14:04;;;;;;;2.70;1.60;;;;;;;28.30;35.98;99344.03;5107022;28;20047;-78
2022/05/18 17:16:31;;;;;;;5.70;1.48;;;;;;;28.03;36.28;99331.53;5099794;28;20508;-78
2022/05/18 17:18:59;;;;;;;2.80;1.50;;;;;;;27.78;37.42;99346.56;5108563;28;20409;-79
2022/05/18 17:21:28;;;;;;;5.22;1.77;;;;;;;27.58;37.52;99319.66;5109609;28;20048;-78
2022/05/18 17:23:57;;;;;;;7.05;1.92;;;;;;;27.43;37.37;99306.69;5105766;28;20124;-78
2022/05/18 17:26:28;;;;;;;3.35;1.50;;;;;;;27.51;38.73;99344.31;5107246;28;20100;-78
2022/05/18 17:29:00;;;;;;;5.13;1.83;;;;;;;27.08;38.24;99310.56;5108220;28;20062;-78
2022/05/18 17:31:27;;;;;;;3.40;1.60;;;;;;;26.98;39.58;99314.28;5108608;28;20067;-78
2022/05/18 17:33:54;;;;;;;8.45;2.03;;;;;;;26.88;39.47;99325.50;5107968;28;20051;-78
2022/05/18 17:36:21;;;;;;;4.57;1.80;;;;;;;26.70;40.92;99319.47;5096579;28;20427;-78
2022/05/18 17:38:48;;;;;;;2.45;1.45;;;;;;;26.74;40.73;99323.38;5088789;28;20052;-78
2022/05/18 17:41:14;;;;;;;4.30;2.00;;;;;;;26.75;40.24;99338.97;5090250;28;20475;-78
2022/05/18 17:43:41;;;;;;;1.92;1.42;;;;;;;26.65;40.88;99327.84;5107216;28;20052;-78
2022/05/18 17:46:09;;;;;;;4.82;1.63;;;;;;;26.49;41.09;99330.69;5101921;28;20419;-78
2022/05/18 17:48:36;;;;;;;2.47;1.58;;;;;;;26.32;41.74;99311.56;5108230;28;20047;-78
2022/05/18 17:51:04;;;;;;;4.20;2.03;;;;;;;26.01;41.53;99312.81;5108753;28;20557;-78
2022/05/18 17:53:33;;;;;;;3.35;1.58;;;;;;;25.82;42.47;99316.19;5100910;28;20301;-78
2022/05/18 17:56:00;;;;;;;2.88;1.58;;;;;;;25.75;41.84;99322.03;5098254;28;20044;-79
2022/05/18 17:58:27;;;;;;;3.92;1.77;;;;;;;25.61;42.25;99321.78;5095532;28;20067;-78
2022/05/18 18:00:54;;;;;;;2.78;1.48;;;;;;;25.66;42.32;99328.47;5099598;28;20043;-78
2022/05/18 18:03:25;;;;;;;3.97;1.45;;;;;;;25.61;42.41;99315.38;5259797;22;20052;-78
2022/05/18 18:05:52;;;;;;;3.80;1.92;;;;;;;25.49;42.13;99328.72;5044368;28;20048;-78
